Time;durP1;ratioP1;P1;durP2;ratioP2;P2;SDS_P1;SDS_P2;PMS_P1;PMS_P2;Temp;Humidity;BMP_temperature;BMP_pressure;BME280_temperature;BME280_humidity;BME280_pressure;Samples;Min_cycle;Max_cycle;Signal;HPM_P1;HPM_P2
2024/03/20 00:00:00;;;;;;;314.80;69.50;;;1.10;99.90;2.70;97349.00;;;;4991592;28;20444;-83
2024/03/20 00:02:48;;;;;;;329.60;77.50;;;1.00;99.90;3.00;97354.00;;;;4995890;28;20511;-83
2024/03/20 00:05:38;;;;;;;316.30;70.87;;;1.00;99.90;2.90;97348.00;;;;4989438;28;20464;-83
2024/03/20 00:08:26;;;;;;;321.37;73.93;;;1.00;99.90;3.40;97349.00;;;;4997644;28;20461;-84
2024/03/20 00:11:14;;;;;;;324.87;75.73;;;1.10;99.90;3.50;97349.00;;;;4994111;28;20495;-83
2024/03/20 00:14:04;;;;;;;315.53;69.70;;;1.20;99.90;3.50;97340.00;;;;5000230;28;20429;-82
2024/03/20 00:16:52;;;;;;;316.67;69.97;;;1.20;99.90;3.50;97349.00;;;;5000045;28;20460;-83
2024/03/20 00:19:40;;;;;;;322.43;73.77;;;1.20;99.90;3.30;97339.00;;;;4998478;28;20440;-83
2024/03/20 00:22:32;;;;;;;324.90;75.53;;;1.20;99.90;2.60;97338.00;;;;4993784;28;20445;-85
2024/03/20 00:25:20;;;;;;;324.67;74.40;;;1.00;99.90;2.40;97336.00;;;;4993214;28;20476;-83
2024/03/20 00:28:08;;;;;;;310.60;66.77;;;0.90;99.90;2.60;97345.00;;;;5004178;28;20432;-82
2024/03/20 00:30:56;;;;;;;318.77;70.70;;;0.80;99.90;2.60;97353.00;;;;4996247;28;20966;-83
2024/03/20 00:33:44;;;;;;;319.40;70.97;;;0.70;99.90;2.90;97356.00;;;;5002305;28;20425;-83
2024/03/20 00:36:32;;;;;;;352.13;92.93;;;0.70;99.90;2.70;97350.00;;;;4990258;28;20401;-83
2024/03/20 00:39:21;;;;;;;325.03;75.10;;;0.80;99.90;3.10;97334.00;;;;4997697;28;20210;-84
2024/03/20 00:42:09;;;;;;;316.93;71.17;;;0.80;99.90;3.30;97344.00;;;;4996646;28;20961;-84
2024/03/20 00:44:58;;;;;;;316.03;69.27;;;0.90;99.90;3.30;97342.00;;;;4995507;28;20473;-85
2024/03/20 00:47:46;;;;;;;313.40;67.23;;;0.90;99.90;2.80;97335.00;;;;4998009;28;20449;-83
2024/03/20 00:50:34;;;;;;;323.03;73.77;;;0.90;99.90;2.50;97328.00;;;;4994637;28;20443;-83
2024/03/20 00:53:22;;;;;;;318.53;72.40;;;0.80;99.90;2.60;97332.00;;;;4997188;28;20453;-83
2024/03/20 00:56:12;;;;;;;313.67;68.23;;;0.70;99.90;2.60;97336.00;;;;4995485;28;20457;-83
2024/03/20 00:59:00;;;;;;;316.60;70.73;;;0.60;99.90;2.60;97334.00;;;;4999404;28;20440;-83
2024/03/20 01:01:48;;;;;;;315.10;68.77;;;0.60;99.90;2.00;97328.00;;;;4993102;28;20438;-83
2024/03/20 01:04:36;;;;;;;313.57;69.10;;;0.50;99.90;2.40;97331.00;;;;5005423;28;20493;-84
2024/03/20 01:07:24;;;;;;;321.83;73.07;;;0.40;99.90;2.40;97335.00;;;;4998612;28;20432;-83
2024/03/20 01:10:12;;;;;;;315.73;69.67;;;0.40;99.90;2.60;97328.00;;;;4996505;28;20436;-84
2024/03/20 01:13:02;;;;;;;312.43;68.00;;;0.40;99.90;2.70;97333.00;;;;4990834;28;20960;-83
2024/03/20 01:15:50;;;;;;;315.13;70.10;;;0.40;99.90;2.90;97336.00;;;;5001527;28;20464;-85
2024/03/20 01:18:37;;;;;;;316.77;71.37;;;0.40;99.90;2.90;97336.00;;;;5000336;28;20438;-83
2024/03/20 01:21:26;;;;;;;310.63;67.30;;;0.50;99.90;2.40;97322.00;;;;5000072;28;20920;-84
2024/03/20 01:24:14;;;;;;;308.20;67.67;;;0.40;99.90;2.60;97320.00;;;;4988412;28;20462;-83
2024/03/20 01:27:02;;;;;;;311.83;70.83;;;0.40;99.90;2.80;97326.00;;;;5000197;28;20826;-84
2024/03/20 01:29:51;;;;;;;308.10;70.53;;;0.40;99.90;2.50;97325.00;;;;5001903;28;20973;-83
2024/03/20 01:32:39;;;;;;;312.77;68.37;;;0.40;99.90;2.20;97312.00;;;;4995495;28;20468;-83
2024/03/20 01:35:27;;;;;;;315.20;72.50;;;0.40;99.90;2.00;97311.00;;;;4993300;28;21012;-83
2024/03/20 01:38:15;;;;;;;310.57;69.30;;;0.20;99.90;2.00;97305.00;;;;5000386;28;20808;-83
2024/03/20 01:41:03;;;;;;;313.77;74.63;;;0.20;99.90;2.20;97313.00;;;;4995769;28;20432;-83
2024/03/20 01:43:55;;;;;;;307.00;67.23;;;0.10;99.90;1.90;97301.00;;;;5001637;28;20556;-84
2024/03/20 01:46:44;;;;;;;307.17;68.40;;;0.00;99.90;2.00;97301.00;;;;4993641;28;20840;-83
2024/03/20 01:49:33;;;;;;;318.43;72.47;;;0.00;99.90;2.30;97307.00;;;;4997691;28;20965;-84
2024/03/20 01:52:21;;;;;;;314.53;72.97;;;0.00;99.90;2.50;97303.00;;;;4994835;28;20658;-83
2024/03/20 01:55:09;;;;;;;308.07;66.87;;;0.10;99.90;2.10;97293.00;;;;4997637;28;20426;-83
2024/03/20 01:57:57;;;;;;;304.27;63.90;;;0.10;99.90;2.00;97298.00;;;;4996128;28;20846;-83
2024/03/20 02:00:46;;;;;;;312.17;69.10;;;0.00;99.90;2.20;97299.00;;;;4995302;28;21135;-83
2024/03/20 02:03:35;;;;;;;316.27;74.63;;;0.00;99.90;1.80;97286.00;;;;4998122;28;20443;-83
2024/03/20 02:06:25;;;;;;;312.90;70.77;;;0.00;99.90;2.00;97295.00;;;;4996338;28;20464;-83
2024/03/20 02:09:13;;;;;;;307.90;67.00;;;0.00;99.90;2.00;97290.00;;;;5003970;28;20441;-84
2024/03/20 02:12:02;;;;;;;310.63;68.10;;;-0.10;99.90;2.00;97299.00;;;;4995327;28;20421;-83
2024/03/20 02:14:50;;;;;;;312.53;67.57;;;-0.10;99.90;1.50;97281.00;;;;4995449;28;20422;-83
2024/03/20 02:17:39;;;;;;;310.13;65.77;;;;;1.60;97282.00;;;;5001509;28;20460;-84
2024/03/20 02:20:28;;;;;;;317.80;72.17;;;-0.40;99.90;1.40;97268.00;;;;4998846;28;20989;-83
2024/03/20 02:23:17;;;;;;;308.67;66.07;;;-0.20;99.90;1.40;97272.00;;;;4994693;28;20449;-82
2024/03/20 02:26:06;;;;;;;316.77;70.90;;;-0.30;99.90;1.30;97272.00;;;;4991631;28;20465;-83
2024/03/20 02:28:54;;;;;;;309.67;67.03;;;-0.40;99.90;1.70;97280.00;;;;4992076;28;20456;-83
2024/03/20 02:31:43;;;;;;;305.13;64.77;;;-0.40;99.90;2.10;97277.00;;;;4998819;28;20425;-83
2024/03/20 02:34:31;;;;;;;314.87;70.30;;;-0.30;99.90;2.10;97283.00;;;;4998307;28;20443;-83
2024/03/20 02:37:18;;;;;;;307.13;65.70;;;-0.20;99.90;2.00;97268.00;;;;4993210;28;20429;-83
2024/03/20 02:40:10;;;;;;;304.20;68.33;;;-0.30;99.90;1.80;97270.00;;;;4996138;28;20447;-83
2024/03/20 02:42:58;;;;;;;297.00;66.33;;;-0.30;99.90;1.70;97272.00;;;;5005788;28;20801;-83
2024/03/20 02:45:45;;;;;;;300.20;64.43;;;-0.40;99.90;1.20;97265.00;;;;5017076;28;20477;-83
2024/03/20 02:48:34;;;;;;;310.10;69.43;;;-0.50;99.90;1.20;97258.00;;;;5000321;28;20502;-83
2024/03/20 02:51:22;;;;;;;310.03;71.90;;;-0.50;99.90;1.40;97264.00;;;;4995096;28;20425;-83
2024/03/20 02:54:10;;;;;;;269.87;63.33;;;-0.50;99.90;1.30;97271.00;;;;4993290;28;20946;-83
2024/03/20 02:56:59;;;;;;;301.37;63.70;;;0.30;99.90;1.50;97264.00;;;;4995840;28;20536;-83
2024/03/20 02:59:47;;;;;;;306.50;67.33;;;-0.20;99.90;1.60;97254.00;;;;4993239;28;20435;-82
2024/03/20 03:02:35;;;;;;;315.33;72.33;;;-0.40;99.90;1.60;97252.00;;;;5016602;28;20437;-83
2024/03/20 03:05:24;;;;;;;311.23;72.67;;;-0.50;99.90;1.40;97255.00;;;;4996255;28;20491;-83
2024/03/20 03:08:12;;;;;;;299.43;68.30;;;-0.60;99.90;1.20;97254.00;;;;4995640;28;20783;-83
2024/03/20 03:11:00;;;;;;;303.30;67.20;;;-0.50;99.90;1.10;97261.00;;;;4998423;28;20437;-83
2024/03/20 03:13:49;;;;;;;306.93;69.30;;;-0.60;99.90;1.70;97263.00;;;;5000216;28;20442;-83
2024/03/20 03:16:37;;;;;;;295.20;69.63;;;-0.50;99.90;1.90;97270.00;;;;5013515;28;20463;-83
2024/03/20 03:19:25;;;;;;;314.23;71.20;;;-0.60;99.90;1.90;97275.00;;;;4992784;28;20441;-83
2024/03/20 03:22:13;;;;;;;302.17;65.33;;;-0.50;99.90;1.80;97258.00;;;;4996682;28;20440;-83
2024/03/20 03:25:02;;;;;;;128.90;55.60;;;-0.60;99.90;1.70;97256.00;;;;4995253;28;20934;-83
2024/03/20 03:27:50;;;;;;;261.83;63.73;;;-0.30;99.90;1.50;97256.00;;;;4997777;28;20438;-84
2024/03/20 03:30:40;;;;;;;290.23;66.83;;;-0.40;99.90;1.20;97257.00;;;;5004340;28;20524;-83
2024/03/20 03:33:28;;;;;;;304.60;72.80;;;-0.60;99.90;1.00;97261.00;;;;4996402;28;20483;-83
2024/03/20 03:36:16;;;;;;;299.90;66.67;;;-0.70;99.90;1.00;97257.00;;;;4999277;28;20461;-83
2024/03/20 03:39:05;;;;;;;135.17;58.50;;;-0.60;99.90;0.70;97261.00;;;;4989862;28;20441;-83
2024/03/20 03:41:53;;;;;;;167.70;61.40;;;-0.80;99.90;1.20;97258.00;;;;4993136;28;20503;-83
2024/03/20 03:44:41;;;;;;;305.73;68.53;;;-0.70;99.90;0.90;97267.00;;;;5003518;28;21009;-83
2024/03/20 03:47:32;;;;;;;85.30;49.70;;;-0.70;99.90;0.70;97262.00;;;;4995952;28;20433;-85
2024/03/20 03:50:20;;;;;;;61.97;40.40;;;-0.80;99.90;0.80;97252.00;;;;4992671;28;20806;-85
2024/03/20 03:53:08;;;;;;;70.90;43.33;;;-0.80;99.90;1.10;97260.00;;;;4998525;28;20968;-84
2024/03/20 03:55:56;;;;;;;105.27;53.10;;;-0.70;99.90;1.20;97263.00;;;;5010248;28;20452;-84
2024/03/20 03:58:44;;;;;;;165.93;60.77;;;-0.80;99.90;1.00;97267.00;;;;4996161;28;20430;-84
2024/03/20 04:01:32;;;;;;;245.90;67.13;;;-0.70;99.90;0.80;97270.00;;;;4996908;28;20437;-84
2024/03/20 04:04:21;;;;;;;160.53;59.67;;;-0.90;99.90;0.10;97254.00;;;;5003576;28;20437;-83
2024/03/20 04:07:09;;;;;;;214.97;66.57;;;-1.00;99.90;0.20;97254.00;;;;5004100;28;20452;-84
2024/03/20 04:09:57;;;;;;;191.93;61.27;;;-1.10;99.90;0.40;97248.00;;;;4999401;28;20442;-83
2024/03/20 04:12:45;;;;;;;248.20;82.37;;;-1.10;99.90;0.50;97261.00;;;;4998013;28;20472;-84
2024/03/20 04:15:33;;;;;;;214.03;87.20;;;-1.30;99.90;0.70;97241.00;;;;4996943;28;20455;-84
2024/03/20 04:18:21;;;;;;;219.50;102.30;;;-1.10;99.90;0.60;97245.00;;;;5001826;28;20445;-83
2024/03/20 04:21:10;;;;;;;172.00;78.23;;;-1.00;99.90;0.40;97256.00;;;;4996604;28;20851;-84
2024/03/20 04:23:58;;;;;;;144.23;76.73;;;-1.10;99.90;0.60;97245.00;;;;4999516;28;20444;-84
2024/03/20 04:26:46;;;;;;;226.77;83.67;;;-1.00;99.90;0.80;97255.00;;;;4994688;28;20480;-84
2024/03/20 04:29:34;;;;;;;178.87;95.90;;;-1.10;99.90;0.60;97248.00;;;;4992826;28;20441;-84
2024/03/20 04:32:22;;;;;;;133.13;75.00;;;-1.10;99.90;0.90;97239.00;;;;4996064;28;20973;-84
2024/03/20 04:35:10;;;;;;;196.60;95.57;;;-1.10;99.90;0.90;97236.00;;;;4988221;28;20954;-83
2024/03/20 04:38:00;;;;;;;122.90;68.67;;;-0.60;99.90;1.40;97238.00;;;;4994522;28;20434;-84
2024/03/20 04:40:48;;;;;;;253.83;124.83;;;-0.70;99.90;1.40;97246.00;;;;4997457;28;20448;-84
2024/03/20 04:43:36;;;;;;;328.47;109.53;;;-0.70;99.90;1.30;97233.00;;;;5000604;28;20448;-84
2024/03/20 04:46:24;;;;;;;315.50;103.10;;;-0.60;99.90;1.50;97255.00;;;;5000238;28;20491;-85
2024/03/20 04:49:12;;;;;;;179.30;79.77;;;;;1.40;97252.00;;;;4999106;28;20448;-85
2024/03/20 04:52:00;;;;;;;209.73;95.17;;;-0.60;99.90;1.50;97257.00;;;;4993059;28;20429;-85
2024/03/20 04:54:50;;;;;;;244.33;121.93;;;-0.50;99.90;1.30;97254.00;;;;4991938;28;20430;-85
2024/03/20 04:57:38;;;;;;;135.87;70.33;;;-0.90;99.90;1.20;97256.00;;;;4994181;28;20429;-85
2024/03/20 05:00:26;;;;;;;195.13;94.67;;;-0.80;99.90;1.20;97257.00;;;;5000813;28;20961;-85
2024/03/20 05:03:14;;;;;;;144.13;75.30;;;-0.80;99.90;0.90;97246.00;;;;4991015;28;20448;-84
2024/03/20 05:06:02;;;;;;;214.27;92.83;;;-1.00;99.90;0.40;97242.00;;;;4993622;28;20475;-83
2024/03/20 05:08:50;;;;;;;166.23;96.83;;;-1.00;99.90;0.60;97240.00;;;;4996728;28;20438;-84
2024/03/20 05:11:39;;;;;;;69.97;42.30;;;-1.40;99.90;-0.10;97252.00;;;;4999905;28;20445;-84
2024/03/20 05:14:27;;;;;;;202.60;86.03;;;-1.50;99.90;0.20;97245.00;;;;5003321;28;20450;-84
2024/03/20 05:17:15;;;;;;;181.93;83.40;;;-1.70;99.90;-0.10;97238.00;;;;4991000;28;20456;-83
2024/03/20 05:20:05;;;;;;;200.63;94.17;;;-1.60;99.90;0.20;97243.00;;;;4987679;28;20444;-83
2024/03/20 05:22:51;;;;;;;206.27;90.23;;;-1.50;99.90;0.00;97253.00;;;;5002345;28;20456;-84
2024/03/20 05:25:40;;;;;;;235.83;122.30;;;-1.50;99.90;0.50;97252.00;;;;4997009;28;20876;-83
2024/03/20 05:28:29;;;;;;;140.07;57.60;;;-1.20;99.90;0.60;97258.00;;;;5001119;28;20432;-83
2024/03/20 05:31:27;;;;;;;132.50;77.10;;;-1.30;99.90;1.20;97271.00;;;;5006758;28;20452;-84
2024/03/20 05:34:14;;;;;;;77.87;45.87;;;-1.60;99.90;1.00;97263.00;;;;4991704;28;20445;-83
2024/03/20 05:37:01;;;;;;;136.93;54.17;;;-1.00;99.90;0.90;97255.00;;;;4995531;28;20453;-82
2024/03/20 05:39:49;;;;;;;324.00;129.57;;;-1.30;99.90;1.20;97271.00;;;;4999189;28;20437;-83
2024/03/20 05:42:37;;;;;;;246.67;103.23;;;-0.90;99.90;1.00;97265.00;;;;4989501;28;20958;-83
2024/03/20 05:45:26;;;;;;;174.77;80.17;;;-1.00;99.90;1.00;97266.00;;;;4994915;28;20476;-82
2024/03/20 05:48:13;;;;;;;200.47;114.00;;;-0.70;99.90;1.20;97256.00;;;;4998237;28;20516;-82
2024/03/20 05:51:01;;;;;;;204.53;84.07;;;-1.10;99.90;1.40;97260.00;;;;4994292;28;20463;-82
2024/03/20 05:53:49;;;;;;;161.83;84.47;;;-1.20;99.90;1.30;97270.00;;;;4991450;28;20511;-82
2024/03/20 05:56:36;;;;;;;245.77;107.10;;;-0.70;99.90;1.60;97274.00;;;;4991058;28;20864;-83
2024/03/20 05:59:24;;;;;;;232.17;92.23;;;-0.90;99.90;0.90;97268.00;;;;4998257;28;20973;-82
2024/03/20 06:02:12;;;;;;;179.10;73.60;;;-0.80;99.90;0.80;97271.00;;;;4997364;28;20899;-82
2024/03/20 06:05:00;;;;;;;193.20;101.77;;;-0.70;99.90;1.10;97266.00;;;;4993318;28;20975;-82
2024/03/20 06:07:48;;;;;;;79.93;45.93;;;-0.60;99.90;1.70;97270.00;;;;5006905;28;20475;-81
2024/03/20 06:10:35;;;;;;;190.17;91.03;;;-0.40;99.90;1.50;97270.00;;;;5002522;28;20437;-80
2024/03/20 06:13:23;;;;;;;189.53;104.33;;;-0.30;99.90;2.10;97284.00;;;;5004314;28;20456;-81
2024/03/20 06:16:10;;;;;;;106.27;51.70;;;0.00;99.90;2.30;97284.00;;;;4993911;28;21056;-82
2024/03/20 06:19:01;;;;;;;128.67;65.13;;;-0.20;99.90;2.50;97285.00;;;;4989334;28;20444;-81
2024/03/20 06:21:48;;;;;;;317.47;92.97;;;0.00;99.90;2.40;97280.00;;;;4995983;28;20503;-82
2024/03/20 06:24:37;;;;;;;324.77;102.27;;;0.20;99.90;2.60;97284.00;;;;5006034;28;20851;-82
2024/03/20 06:27:24;;;;;;;206.93;69.20;;;0.20;99.90;2.60;97287.00;;;;4994346;28;20438;-82
2024/03/20 06:30:15;;;;;;;94.37;53.03;;;0.30;99.90;2.60;97277.00;;;;4994526;28;20483;-82
2024/03/20 06:33:02;;;;;;;106.73;53.90;;;0.60;99.90;2.80;97284.00;;;;4997331;28;20999;-84
2024/03/20 06:35:52;;;;;;;110.47;56.03;;;0.50;99.90;2.70;97285.00;;;;5002006;28;20812;-80
2024/03/20 06:38:39;;;;;;;119.83;61.40;;;0.60;99.90;2.60;97285.00;;;;4997986;28;20426;-82
2024/03/20 06:41:27;;;;;;;132.27;59.73;;;0.80;99.90;2.80;97287.00;;;;5005283;28;20716;-83
2024/03/20 06:44:17;;;;;;;273.73;85.63;;;0.70;99.90;3.30;97277.00;;;;5001698;28;20438;-81
2024/03/20 06:47:05;;;;;;;67.87;46.23;;;0.80;99.90;3.40;97283.00;;;;5014236;28;20479;-81
2024/03/20 06:49:53;;;;;;;61.87;45.60;;;1.20;99.90;3.00;97277.00;;;;4997855;28;20868;-82
2024/03/20 06:52:43;;;;;;;57.10;43.00;;;1.10;99.90;3.50;97271.00;;;;4998164;28;20909;-83
2024/03/20 06:55:31;;;;;;;74.03;49.53;;;1.10;99.90;3.20;97265.00;;;;4995465;28;20974;-81
2024/03/20 06:58:18;;;;;;;76.43;49.90;;;1.40;99.90;3.30;97265.00;;;;5001274;28;20440;-83
2024/03/20 07:01:06;;;;;;;80.77;51.83;;;1.50;99.90;3.30;97278.00;;;;5003258;28;20429;-82
2024/03/20 07:03:53;;;;;;;73.13;48.03;;;1.50;99.90;3.20;97290.00;;;;5004656;28;20446;-82
2024/03/20 07:06:41;;;;;;;95.10;55.03;;;1.50;99.90;3.30;97279.00;;;;5007949;28;20476;-81
2024/03/20 07:09:29;;;;;;;114.13;59.77;;;1.70;99.90;4.00;97277.00;;;;4993583;28;20452;-82
2024/03/20 07:12:17;;;;;;;326.20;100.17;;;1.70;99.90;4.50;97291.00;;;;5002909;28;20464;-82
2024/03/20 07:15:07;;;;;;;326.47;86.27;;;2.10;99.90;5.00;97283.00;;;;4996990;28;20825;-81
2024/03/20 07:17:55;;;;;;;278.97;96.73;;;2.30;99.90;4.20;97279.00;;;;5012317;28;20864;-82
2024/03/20 07:20:42;;;;;;;313.10;77.13;;;2.40;99.90;4.10;97274.00;;;;4993566;28;20452;-82
2024/03/20 07:23:30;;;;;;;333.87;88.17;;;2.40;99.90;4.50;97285.00;;;;4995337;28;20433;-80
2024/03/20 07:26:19;;;;;;;301.70;76.07;;;2.50;99.90;4.60;97277.00;;;;5002289;28;20690;-82
2024/03/20 07:29:09;;;;;;;314.07;80.53;;;2.40;99.90;4.80;97289.00;;;;5010830;28;20445;-81
2024/03/20 07:31:56;;;;;;;305.90;97.60;;;2.70;99.90;4.80;97286.00;;;;5007436;28;20634;-83
2024/03/20 07:34:44;;;;;;;298.33;76.37;;;2.90;99.90;5.40;97283.00;;;;4995972;28;20813;-80
2024/03/20 07:37:31;;;;;;;335.90;85.40;;;3.10;99.90;5.80;97280.00;;;;5002333;28;20805;-81
2024/03/20 07:40:20;;;;;;;330.10;88.03;;;3.30;99.90;6.00;97292.00;;;;4993876;28;20946;-80
2024/03/20 07:43:09;;;;;;;264.57;75.93;;;3.60;99.90;6.20;97297.00;;;;5000931;28;21038;-82
2024/03/20 07:45:57;;;;;;;336.07;86.33;;;3.70;99.90;6.50;97290.00;;;;5003214;28;20554;-83
2024/03/20 07:48:44;;;;;;;269.20;82.70;;;4.10;99.90;6.50;97299.00;;;;5001515;28;20448;-82
2024/03/20 07:51:32;;;;;;;332.03;81.90;;;4.40;99.90;6.80;97298.00;;;;4995718;28;20445;-82
2024/03/20 07:54:23;;;;;;;329.57;78.93;;;4.70;99.90;7.50;97300.00;;;;4993777;28;20468;-82
2024/03/20 07:57:11;;;;;;;286.63;88.67;;;4.70;99.90;7.70;97305.00;;;;5000809;28;20454;-81
2024/03/20 07:59:59;;;;;;;246.40;84.17;;;4.40;99.90;7.80;97304.00;;;;4991907;28;20498;-82
2024/03/20 08:02:47;;;;;;;225.20;86.50;;;4.90;99.90;8.50;97306.00;;;;5001555;28;20690;-83
2024/03/20 08:05:35;;;;;;;233.60;90.03;;;5.30;99.90;8.70;97315.00;;;;4995567;28;20225;-82
2024/03/20 08:08:22;;;;;;;225.87;87.07;;;5.70;99.90;8.60;97309.00;;;;5002298;28;20226;-81
2024/03/20 08:11:10;;;;;;;222.63;92.77;;;5.60;99.90;8.90;97306.00;;;;4997272;28;20692;-81
2024/03/20 08:13:57;;;;;;;217.80;90.33;;;6.40;99.90;9.30;97311.00;;;;5002980;28;20620;-82
2024/03/20 08:16:48;;;;;;;230.20;95.77;;;6.20;99.90;9.90;97309.00;;;;4999758;28;20217;-81
2024/03/20 08:19:35;;;;;;;231.27;96.53;;;6.70;99.90;9.80;97312.00;;;;4996606;28;20210;-82
2024/03/20 08:22:23;;;;;;;225.73;93.27;;;6.90;99.90;9.60;97297.00;;;;5005448;28;20547;-81
2024/03/20 08:25:10;;;;;;;226.80;97.10;;;7.10;99.90;9.90;97315.00;;;;5016732;28;20599;-81
2024/03/20 08:27:58;;;;;;;206.03;94.27;;;7.20;99.90;10.80;97311.00;;;;4996815;28;20217;-81
2024/03/20 08:30:45;;;;;;;211.47;99.13;;;7.50;99.90;11.30;97320.00;;;;4998628;28;20598;-82
2024/03/20 08:33:35;;;;;;;220.63;105.33;;;7.80;99.90;11.80;97320.00;;;;5003888;28;20205;-84
2024/03/20 08:36:22;;;;;;;211.50;98.87;;;8.00;99.90;12.20;97324.00;;;;5002843;28;20225;-82
2024/03/20 08:39:10;;;;;;;220.43;103.07;;;8.70;99.90;12.50;97317.00;;;;4996493;28;20263;-83
2024/03/20 08:41:57;;;;;;;224.30;104.10;;;9.00;99.90;12.50;97319.00;;;;5004660;28;20213;-82
2024/03/20 08:44:45;;;;;;;233.40;108.70;;;8.80;99.90;12.70;97324.00;;;;4995239;28;20208;-82
2024/03/20 08:47:34;;;;;;;243.40;114.83;;;9.20;99.90;12.90;97316.00;;;;5003758;28;20234;-81
2024/03/20 08:50:24;;;;;;;244.10;113.97;;;9.30;99.90;13.00;97317.00;;;;5001949;28;20202;-83
2024/03/20 08:53:11;;;;;;;241.27;115.33;;;9.60;99.90;13.20;97318.00;;;;4991934;28;20202;-83
2024/03/20 08:55:59;;;;;;;256.93;122.30;;;9.60;99.90;13.40;97324.00;;;;5000180;28;20221;-82
2024/03/20 08:58:46;;;;;;;257.60;123.87;;;9.90;99.90;13.70;97322.00;;;;4994204;28;20718;-82
2024/03/20 09:01:35;;;;;;;268.10;129.07;;;9.90;99.90;13.90;97315.00;;;;5001042;28;20206;-82
2024/03/20 09:04:21;;;;;;;257.63;119.90;;;10.40;99.90;14.10;97326.00;;;;5009073;28;20211;-82
2024/03/20 09:07:11;;;;;;;263.70;124.77;;;10.40;99.90;14.20;97322.00;;;;4995316;28;20231;-83
2024/03/20 09:09:58;;;;;;;269.77;125.73;;;10.80;99.90;14.40;97316.00;;;;5004920;28;20218;-82
2024/03/20 09:12:46;;;;;;;262.37;124.33;;;10.70;99.90;14.40;97307.00;;;;5015158;28;20206;-83
2024/03/20 09:15:33;;;;;;;279.57;129.30;;;10.90;99.90;14.60;97318.00;;;;5000412;28;20592;-83
2024/03/20 09:18:21;;;;;;;281.30;133.67;;;11.20;99.90;14.90;97317.00;;;;4997396;28;20216;-83
2024/03/20 09:21:08;;;;;;;283.97;141.73;;;11.30;99.90;14.90;97314.00;;;;4988276;28;20206;-82
2024/03/20 09:23:58;;;;;;;280.57;137.87;;;11.30;99.90;14.80;97308.00;;;;5001268;28;20202;-84
2024/03/20 09:26:45;;;;;;;283.70;139.60;;;11.40;99.90;14.80;97319.00;;;;4992130;28;20228;-85
2024/03/20 09:29:33;;;;;;;287.47;139.43;;;11.60;99.90;15.30;97320.00;;;;4995829;28;20671;-84
2024/03/20 09:32:19;;;;;;;280.57;138.70;;;11.80;99.90;15.00;97312.00;;;;4995407;28;20208;-83
2024/03/20 09:35:09;;;;;;;286.97;140.50;;;11.90;99.90;15.40;97313.00;;;;5003665;28;20603;-83
2024/03/20 09:37:56;;;;;;;291.30;141.27;;;11.80;99.90;15.20;97307.00;;;;5000695;28;20194;-83
2024/03/20 09:40:45;;;;;;;296.60;144.40;;;12.00;99.90;15.70;97308.00;;;;4995685;28;20217;-84
2024/03/20 09:43:32;;;;;;;296.43;147.33;;;12.20;99.90;16.10;97307.00;;;;4991036;28;20214;-84
2024/03/20 09:46:21;;;;;;;298.50;146.07;;;12.40;99.90;16.00;97305.00;;;;5003718;28;20233;-83
2024/03/20 09:49:09;;;;;;;294.87;148.90;;;12.50;99.90;16.30;97298.00;;;;4994043;28;20224;-83
2024/03/20 09:51:57;;;;;;;285.93;146.63;;;12.60;99.90;16.60;97296.00;;;;4997831;28;20576;-83
2024/03/20 09:54:44;;;;;;;300.17;155.37;;;12.90;99.90;16.60;97302.00;;;;4994220;28;20213;-83
2024/03/20 09:57:34;;;;;;;307.13;162.60;;;12.80;99.90;16.30;97294.00;;;;5000484;28;20216;-85
2024/03/20 10:00:22;;;;;;;288.60;149.10;;;13.00;99.90;16.50;97292.00;;;;5001187;28;20212;-83
2024/03/20 10:03:12;;;;;;;285.57;153.03;;;13.10;99.90;16.90;97284.00;;;;4993172;28;20216;-83
2024/03/20 10:05:59;;;;;;;282.07;157.40;;;13.30;99.90;16.90;97288.00;;;;5000101;28;20268;-82
2024/03/20 10:08:46;;;;;;;274.90;158.83;;;13.40;99.90;16.70;97291.00;;;;5000306;28;20202;-85
2024/03/20 10:11:34;;;;;;;286.00;167.77;;;13.50;99.90;15.90;97287.00;;;;5003645;28;20231;-82
2024/03/20 10:14:23;;;;;;;259.40;157.47;;;13.50;99.90;15.70;97279.00;;;;4999136;28;20668;-81
2024/03/20 10:17:12;;;;;;;262.33;162.43;;;13.40;99.90;16.90;97287.00;;;;4997677;28;20221;-83
2024/03/20 10:20:00;;;;;;;265.07;162.70;;;13.60;99.90;17.30;97277.00;;;;4996528;28;20562;-83
2024/03/20 10:22:47;;;;;;;260.63;158.37;;;13.50;99.90;17.30;97272.00;;;;5004564;28;20557;-85
2024/03/20 10:25:36;;;;;;;272.30;168.57;;;13.80;99.90;17.30;97269.00;;;;4996417;28;20236;-84
2024/03/20 10:28:29;;;;;;;256.30;161.00;;;13.90;99.90;17.60;97270.00;;;;4994091;28;20194;-82
2024/03/20 10:31:22;;;;;;;268.03;172.40;;;14.10;99.90;17.90;97267.00;;;;4998319;28;20216;-85
2024/03/20 10:34:14;;;;;;;258.13;167.50;;;14.30;99.90;18.30;97258.00;;;;4994870;28;20221;-83
2024/03/20 10:37:02;;;;;;;266.63;175.03;;;14.80;99.90;18.40;97265.00;;;;4986861;28;20304;-83
2024/03/20 10:39:51;;;;;;;268.13;176.23;;;14.70;99.90;18.00;97254.00;;;;4999289;28;20752;-82
2024/03/20 10:42:40;;;;;;;272.10;182.30;;;14.90;99.90;17.60;97248.00;;;;4991999;28;20252;-83
2024/03/20 10:45:26;;;;;;;269.43;181.97;;;15.10;99.40;18.60;97258.00;;;;4992750;28;20733;-83
2024/03/20 10:48:17;;;;;;;259.63;180.17;;;15.20;99.60;18.20;97253.00;;;;4994651;28;20591;-82
2024/03/20 10:51:09;;;;;;;276.77;189.90;;;15.00;98.80;19.30;97254.00;;;;5000142;28;20796;-83
2024/03/20 10:53:57;;;;;;;289.13;195.60;;;15.40;99.80;20.00;97259.00;;;;5000309;28;20201;-83
2024/03/20 10:56:46;;;;;;;300.90;204.80;;;15.80;99.70;19.70;97253.00;;;;5001319;28;20222;-83
2024/03/20 10:59:34;;;;;;;311.43;219.47;;;16.20;98.00;20.00;97242.00;;;;5000011;28;20224;-83
2024/03/20 11:02:25;;;;;;;328.57;234.10;;;16.50;98.20;19.90;97242.00;;;;4994666;28;20225;-83
2024/03/20 11:05:39;;;;;;;323.93;235.87;;;16.40;96.50;18.70;97235.00;;;;4994949;28;20221;-85
2024/03/20 11:08:27;;;;;;;325.90;248.67;;;16.60;95.50;19.50;97244.00;;;;4992880;28;20256;-84
2024/03/20 11:11:14;;;;;;;335.80;256.40;;;16.60;96.20;19.30;97234.00;;;;4993148;28;20214;-84
2024/03/20 11:14:05;;;;;;;333.47;259.63;;;16.70;94.40;19.60;97231.00;;;;4993426;28;20212;-82
2024/03/20 11:16:53;;;;;;;339.37;262.00;;;16.80;94.70;19.00;97216.00;;;;5017297;28;20248;-83
2024/03/20 11:19:41;;;;;;;333.23;267.17;;;16.80;94.00;18.40;97225.00;;;;4996120;28;20205;-84
2024/03/20 11:22:34;;;;;;;340.63;267.47;;;16.70;93.80;19.50;97219.00;;;;5001285;28;20220;-82
2024/03/20 11:25:22;;;;;;;344.80;271.50;;;16.80;93.50;19.50;97215.00;;;;5002742;28;20221;-82
2024/03/20 11:28:12;;;;;;;346.17;274.90;;;17.20;93.10;18.90;97208.00;;;;4995857;28;20732;-81
2024/03/20 11:30:59;;;;;;;344.97;275.03;;;17.30;92.90;18.70;97198.00;;;;5000439;28;20201;-85
2024/03/20 11:33:47;;;;;;;341.50;273.27;;;17.00;91.90;20.00;97201.00;;;;5001948;28;20433;-85
2024/03/20 11:36:34;;;;;;;348.57;270.77;;;17.00;92.90;20.00;97195.00;;;;5004837;28;20583;-83
2024/03/20 11:39:25;;;;;;;346.60;270.13;;;16.90;92.50;20.30;97194.00;;;;4994791;28;20220;-82
2024/03/20 11:42:13;;;;;;;366.03;285.60;;;17.40;92.40;22.10;97203.00;;;;4993347;28;20202;-83
2024/03/20 11:45:01;;;;;;;388.17;292.93;;;17.80;91.90;22.10;97201.00;;;;4993892;28;20303;-82
2024/03/20 11:47:48;;;;;;;394.60;306.23;;;18.00;85.30;21.30;97196.00;;;;4996793;28;20518;-83
2024/03/20 11:50:37;;;;;;;400.70;318.63;;;18.50;85.20;19.30;97181.00;;;;4999412;28;20687;-83
2024/03/20 11:53:24;;;;;;;394.83;317.70;;;18.30;81.10;21.40;97191.00;;;;4998765;28;20214;-85
2024/03/20 11:56:14;;;;;;;415.63;336.80;;;18.50;82.40;21.90;97188.00;;;;4995293;28;20733;-84
2024/03/20 11:59:01;;;;;;;396.80;342.27;;;18.70;82.60;23.30;97193.00;;;;5003294;28;20305;-84
2024/03/20 12:01:55;;;;;;;402.67;350.93;;;19.10;83.60;21.00;97187.00;;;;5007709;28;20218;-82
2024/03/20 12:04:43;;;;;;;411.27;365.57;;;19.10;77.90;23.10;97186.00;;;;5009104;28;20210;-84
2024/03/20 12:07:32;;;;;;;415.20;369.80;;;19.40;79.50;22.70;97178.00;;;;5001616;28;20222;-82
2024/03/20 12:10:36;;;;;;;421.13;376.03;;;19.60;76.40;23.60;97188.00;;;;5003991;28;20205;-83